| time (UTC) | temp F | wind direction | speed knots | gust knots | rain 1hr in | rain 24hr in | rain mn in | humidity % | barometer mb |
| 20260505153305 | 37 | 350 | 0.0 | 2.6 | 0.01 | 0.29 | 0.20 | 92 | 1029.2 |
| 20260505151804 | 37 | 0 | 0.0 | 1.7 | 0.02 | 0.29 | 0.20 | 92 | 1029.1 |
| 20260505151305 | 37 | 12 | 0.0 | 1.7 | 0.01 | 0.28 | 0.19 | 92 | 1029.0 |
| 20260505150805 | 36 | 12 | 0.0 | 1.7 | 0.01 | 0.28 | 0.19 | 92 | 1028.9 |
| 20260505150307 | 36 | 2 | 0.0 | 1.7 | 0.02 | 0.28 | 0.19 | 92 | 1028.9 |
| 20260505130306 | 35 | 19 | 0.0 | 2.6 | 0.02 | 0.24 | 0.15 | 90 | 1028.2 |
| 20260505124805 | 35 | 19 | 0.0 | 2.6 | 0.04 | 0.24 | 0.15 | 89 | 1027.8 |
| 20260505124304 | 35 | 5 | 0.0 | 1.7 | 0.04 | 0.24 | 0.15 | 89 | 1027.7 |
| 20260505123805 | 35 | 0 | 0.0 | 2.6 | 0.04 | 0.23 | 0.14 | 89 | 1027.6 |
| 20260505123305 | 36 | 5 | 0.9 | 2.6 | 0.04 | 0.23 | 0.14 | 89 | 1027.5 |
| 20260505121804 | 36 | 0 | 0.9 | 4.3 | 0.06 | 0.23 | 0.14 | 89 | 1027.5 |
| 20260505121304 | 36 | 5 | 1.7 | 2.6 | 0.05 | 0.22 | 0.13 | 89 | 1027.5 |
| 20260505120805 | 36 | 355 | 0.9 | 4.3 | 0.06 | 0.22 | 0.13 | 89 | 1027.4 |
| 20260505114804 | 37 | 12 | 1.7 | 5.2 | 0.04 | 0.20 | 0.11 | 88 | 1027.1 |
| 20260505114304 | 37 | 12 | 1.7 | 5.2 | 0.04 | 0.20 | 0.11 | 88 | 1027.2 |
| 20260505113805 | 38 | 10 | 0.9 | 7.8 | 0.03 | 0.19 | 0.10 | 88 | 1027.2 |
| 20260505113304 | 38 | 0 | 1.7 | 7.8 | 0.03 | 0.19 | 0.10 | 88 | 1027.0 |
| 20260505111805 | 39 | 10 | 1.7 | 5.2 | 0.02 | 0.17 | 0.08 | 88 | 1026.6 |
| 20260505110804 | 39 | 1 | 2.6 | 8.7 | 0.02 | 0.16 | 0.07 | 88 | 1026.5 |
| 20260505100804 | 41 | 21 | 1.7 | 8.7 | 0.04 | 0.14 | 0.05 | 89 | 1025.5 |
| 20260505094305 | 42 | 3 | 4.3 | 7.8 | 0.02 | 0.12 | 0.03 | 88 | 1025.1 |
| 20260505093304 | 43 | 9 | 2.6 | 7.0 | 0.00 | 0.10 | 0.01 | 88 | 1025.0 |
| 20260505091805 | 43 | 8 | 1.7 | 7.0 | 0.00 | 0.10 | 0.01 | 88 | 1024.9 |
| 20260505091305 | 43 | 11 | 2.6 | 8.7 | 0.00 | 0.10 | 0.01 | 88 | 1024.8 |
| 20260505090805 | 43 | 359 | 2.6 | 8.7 | 0.00 | 0.10 | 0.01 | 88 | 1024.6 |
| 20260505084805 | 44 | 1 | 1.7 | 5.2 | 0.01 | 0.10 | 0.01 | 87 | 1024.6 |
| 20260505083804 | 44 | 352 | 1.7 | 7.0 | 0.01 | 0.10 | 0.01 | 86 | 1024.5 |
| 20260505083305 | 44 | 5 | 1.7 | 7.0 | 0.01 | 0.10 | 0.01 | 86 | 1024.6 |
| 20260505081805 | 45 | 3 | 4.3 | 10.4 | 0.01 | 0.10 | 0.01 | 84 | 1024.7 |
| 20260505080805 | 46 | 6 | 2.6 | 10.4 | 0.01 | 0.10 | 0.01 | 83 | 1024.7 |
| 20260505080307 | 47 | 20 | 2.6 | 10.4 | 0.01 | 0.10 | 0.01 | 83 | 1024.6 |
| 20260505074804 | 49 | 21 | 3.5 | 8.7 | 0.00 | 0.09 | 0.00 | 86 | 1024.3 |
| 20260505074305 | 49 | 20 | 0.0 | 2.6 | 0.00 | 0.09 | 0.00 | 86 | 1024.4 |
| 20260505073304 | 49 | 207 | 0.0 | 0.0 | 0.00 | 0.09 | 0.00 | 86 | 1024.3 |
| 20260505071805 | 49 | 207 | 0.0 | 0.0 | 0.00 | 0.09 | 0.00 | 85 | 1024.1 |
| 20260505071304 | 49 | 207 | 0.0 | 0.0 | 0.00 | 0.09 | 0.00 | 85 | 1024.0 |
| 20260505070805 | 49 | 207 | 0.0 | 0.0 | 0.00 | 0.09 | 0.00 | 85 | 1024.0 |
| 20260505070306 | 49 | 207 | 0.0 | 0.0 | 0.00 | 0.09 | 0.00 | 85 | 1023.8 |
| 20260505064805 | 48 | 207 | 0.0 | 0.0 | 0.00 | 0.09 | 0.00 | 85 | 1023.7 |
| 20260505064305 | 48 | 207 | 0.0 | 0.0 | 0.00 | 0.09 | 0.00 | 85 | 1023.7 |
| 20260505063804 | 48 | 207 | 0.0 | 1.7 | 0.00 | 0.09 | 0.00 | 85 | 1023.7 |
| 20260505063305 | 48 | 207 | 0.0 | 1.7 | 0.00 | 0.09 | 0.00 | 85 | 1023.8 |
| 20260505061304 | 48 | 207 | 0.0 | 1.7 | 0.00 | 0.09 | 0.00 | 86 | 1023.8 |
| 20260505060306 | 48 | 207 | 0.0 | 1.7 | 0.00 | 0.09 | 0.00 | 86 | 1023.8 |
| 20260505054805 | 48 | 207 | 0.0 | 0.0 | 0.00 | 0.09 | 0.09 | 85 | 1024.0 |
| 20260505054305 | 48 | 207 | 0.0 | 0.0 | 0.00 | 0.09 | 0.09 | 85 | 1023.8 |
| 20260505053805 | 48 | 207 | 0.0 | 1.7 | 0.00 | 0.09 | 0.09 | 84 | 1023.6 |
| 20260505053305 | 48 | 207 | 0.0 | 1.7 | 0.00 | 0.09 | 0.09 | 84 | 1023.5 |
| 20260505051805 | 48 | 207 | 0.0 | 0.9 | 0.00 | 0.09 | 0.09 | 84 | 1023.4 |
| 20260505050804 | 48 | 207 | 0.0 | 1.7 | 0.00 | 0.09 | 0.09 | 83 | 1023.3 |
| 20260505050307 | 48 | 207 | 0.0 | 1.7 | 0.00 | 0.09 | 0.09 | 83 | 1023.2 |
| 20260505041305 | 49 | 257 | 0.9 | 2.6 | 0.04 | 0.09 | 0.09 | 84 | 1023.8 |
| 20260505040805 | 49 | 243 | 0.9 | 2.6 | 0.05 | 0.09 | 0.09 | 84 | 1023.7 |
| 20260505040305 | 49 | 246 | 0.0 | 0.9 | 0.06 | 0.09 | 0.09 | 84 | 1023.6 |
| 20260505034305 | 50 | 247 | 0.0 | 1.7 | 0.08 | 0.08 | 0.08 | 83 | 1023.5 |
| 20260505033804 | 50 | 246 | 0.0 | 1.7 | 0.07 | 0.07 | 0.07 | 83 | 1023.6 |
| 20260505033305 | 50 | 271 | 0.0 | 2.6 | 0.06 | 0.06 | 0.06 | 83 | 1023.7 |
| 20260505031805 | 50 | 0 | 0.0 | 2.6 | 0.05 | 0.05 | 0.05 | 82 | 1023.3 |
| 20260505031304 | 51 | 319 | 0.9 | 2.6 | 0.05 | 0.05 | 0.05 | 81 | 1023.2 |
| 20260505030804 | 51 | 294 | 0.9 | 2.6 | 0.04 | 0.04 | 0.04 | 80 | 1023.1 |
| 20260505030307 | 51 | 19 | 0.9 | 2.6 | 0.03 | 0.03 | 0.03 | 79 | 1023.0 |
| 20260505024304 | 52 | 326 | 0.0 | 1.7 | 0.00 | 0.00 | 0.00 | 74 | 1022.5 |
| 20260505023805 | 52 | 325 | 0.9 | 1.7 | 0.00 | 0.00 | 0.00 | 73 | 1022.4 |
| 20260505023304 | 52 | 11 | 0.0 | 2.6 | 0.00 | 0.00 | 0.00 | 73 | 1022.3 |
| 20260505021805 | 53 | 2 | 1.7 | 2.6 | 0.00 | 0.00 | 0.00 | 71 | 1022.1 |
| 20260505021304 | 53 | 17 | 0.9 | 4.3 | 0.00 | 0.00 | 0.00 | 70 | 1022.0 |
| 20260505020804 | 54 | 6 | 1.7 | 4.3 | 0.00 | 0.00 | 0.00 | 69 | 1022.0 |
| 20260505020306 | 54 | 0 | 0.9 | 4.3 | 0.00 | 0.00 | 0.00 | 68 | 1022.2 |
| 20260505014804 | 55 | 5 | 2.6 | 7.0 | 0.00 | 0.00 | 0.00 | 66 | 1022.2 |
| 20260505013805 | 57 | 10 | 2.6 | 7.0 | 0.00 | 0.00 | 0.00 | 61 | 1021.9 |
| 20260505013304 | 58 | 1 | 2.6 | 7.0 | 0.00 | 0.00 | 0.00 | 59 | 1021.9 |
| 20260505011804 | 59 | 342 | 0.9 | 1.7 | 0.00 | 0.00 | 0.00 | 50 | 1021.7 |
| 20260505011304 | 59 | 342 | 0.9 | 1.7 | 0.00 | 0.00 | 0.00 | 49 | 1021.5 |
| 20260505004805 | 60 | 284 | 0.0 | 4.3 | 0.00 | 0.00 | 0.00 | 48 | 1021.2 |
| 20260505003804 | 61 | 355 | 1.7 | 2.6 | 0.00 | 0.00 | 0.00 | 47 | 1021.1 |
| 20260505003305 | 61 | 7 | 0.9 | 2.6 | 0.00 | 0.00 | 0.00 | 47 | 1021.0 |
| 20260505001304 | 62 | 356 | 1.7 | 8.7 | 0.00 | 0.00 | 0.00 | 44 | 1020.8 |
| 20260505000805 | 62 | 10 | 1.7 | 8.7 | 0.00 | 0.00 | 0.00 | 42 | 1020.8 |
| 20260505000307 | 62 | 10 | 0.9 | 4.3 | 0.00 | 0.00 | 0.00 | 42 | 1020.8 |
| 20260504234805 | 63 | 16 | 2.6 | 7.0 | 0.00 | 0.00 | 0.00 | 39 | 1020.8 |
| 20260504234305 | 63 | 2 | 1.7 | 4.3 | 0.00 | 0.00 | 0.00 | 38 | 1020.7 |
| 20260504233804 | 63 | 16 | 2.6 | 5.2 | 0.00 | 0.00 | 0.00 | 38 | 1020.5 |
| 20260504233305 | 63 | 0 | 1.7 | 7.0 | 0.00 | 0.00 | 0.00 | 39 | 1020.3 |
| 20260504231805 | 64 | 355 | 1.7 | 7.8 | 0.00 | 0.00 | 0.00 | 39 | 1020.4 |
| 20260504231304 | 64 | 350 | 1.7 | 7.8 | 0.00 | 0.00 | 0.00 | 39 | 1020.5 |
| 20260504230804 | 64 | 12 | 1.7 | 7.8 | 0.00 | 0.00 | 0.00 | 38 | 1020.4 |
| 20260504224805 | 63 | 304 | 2.6 | 8.7 | 0.00 | 0.00 | 0.00 | 38 | 1020.6 |
| 20260504224305 | 63 | 250 | 1.7 | 5.2 | 0.00 | 0.00 | 0.00 | 38 | 1020.7 |
| 20260504223804 | 63 | 272 | 0.9 | 2.6 | 0.00 | 0.00 | 0.00 | 37 | 1020.7 |
| 20260504223305 | 63 | 2 | 0.9 | 2.6 | 0.00 | 0.00 | 0.00 | 37 | 1020.6 |
| 20260504221804 | 64 | 16 | 1.7 | 7.0 | 0.00 | 0.00 | 0.00 | 36 | 1020.1 |
| 20260504221304 | 64 | 7 | 1.7 | 10.4 | 0.00 | 0.00 | 0.00 | 36 | 1019.9 |
| 20260504220804 | 64 | 15 | 3.5 | 10.4 | 0.00 | 0.00 | 0.00 | 36 | 1019.7 |
| 20260504220307 | 65 | 6 | 2.6 | 10.4 | 0.00 | 0.00 | 0.00 | 35 | 1019.5 |
| 20260504214805 | 67 | 26 | 5.2 | 14.8 | 0.00 | 0.00 | 0.00 | 34 | 1019.3 |
| 20260504214305 | 67 | 29 | 3.5 | 14.8 | 0.00 | 0.00 | 0.00 | 33 | 1019.2 |
| 20260504213804 | 67 | 1 | 7.0 | 14.8 | 0.00 | 0.00 | 0.00 | 33 | 1019.0 |
| 20260504213305 | 68 | 14 | 5.2 | 11.3 | 0.00 | 0.00 | 0.00 | 32 | 1019.0 |
| 20260504211304 | 68 | 19 | 5.2 | 17.4 | 0.00 | 0.00 | 0.00 | 31 | 1019.4 |
| 20260504210804 | 69 | 18 | 5.2 | 10.4 | 0.00 | 0.00 | 0.00 | 29 | 1019.5 |
| 20260504210307 | 69 | 198 | 0.0 | 2.6 | 0.00 | 0.00 | 0.00 | 29 | 1019.2 |
| 20260504204805 | 68 | 192 | 0.9 | 2.6 | 0.00 | 0.00 | 0.00 | 32 | 1019.1 |
| 20260504204304 | 68 | 207 | 0.9 | 6.1 | 0.00 | 0.00 | 0.00 | 33 | 1019.2 |
| 20260504203805 | 67 | 178 | 0.9 | 6.1 | 0.00 | 0.00 | 0.00 | 33 | 1019.1 |
| 20260504201804 | 65 | 152 | 2.6 | 6.1 | 0.00 | 0.00 | 0.00 | 36 | 1019.1 |
| 20260504201305 | 64 | 192 | 0.0 | 2.6 | 0.00 | 0.00 | 0.00 | 40 | 1019.0 |
| 20260504200805 | 64 | 164 | 1.7 | 6.1 | 0.00 | 0.00 | 0.00 | 39 | 1019.0 |
| 20260504200307 | 65 | 170 | 0.9 | 7.0 | 0.00 | 0.00 | 0.00 | 42 | 1019.1 |
| 20260504194804 | 67 | 187 | 3.5 | 12.2 | 0.00 | 0.00 | 0.00 | 26 | 1018.8 |
| 20260504194305 | 69 | 173 | 5.2 | 12.2 | 0.00 | 0.00 | 0.00 | 27 | 1018.7 |
| 20260504193804 | 72 | 213 | 2.6 | 11.3 | 0.00 | 0.00 | 0.00 | 26 | 1018.8 |
| 20260504193304 | 74 | 215 | 3.5 | 10.4 | 0.00 | 0.00 | 0.00 | 23 | 1019.1 |
| 20260504191305 | 80 | 348 | 1.7 | 7.8 | 0.00 | 0.00 | 0.00 | 18 | 1018.3 |
| 20260504190804 | 81 | 330 | 1.7 | 7.8 | 0.00 | 0.00 | 0.00 | 17 | 1018.3 |
| 20260504190307 | 82 | 2 | 2.6 | 7.8 | 0.00 | 0.00 | 0.00 | 17 | 1018.3 |
| 20260504183805 | 81 | 34 | 3.5 | 8.7 | 0.00 | 0.00 | 0.00 | 18 | 1018.5 |
| 20260504183304 | 80 | 354 | 2.6 | 8.7 | 0.00 | 0.00 | 0.00 | 19 | 1018.6 |
| 20260504181304 | 77 | 356 | 4.3 | 10.4 | 0.00 | 0.00 | 0.00 | 21 | 1018.9 |
| 20260504180805 | 76 | 349 | 2.6 | 8.7 | 0.00 | 0.00 | 0.00 | 21 | 1019.0 |
| 20260504180307 | 75 | 2 | 2.6 | 10.4 | 0.00 | 0.00 | 0.00 | 22 | 1019.1 |
| 20260504174804 | 73 | 256 | 2.6 | 7.0 | 0.00 | 0.00 | 0.00 | 24 | 1019.3 |
| 20260504174304 | 73 | 14 | 1.7 | 10.4 | 0.00 | 0.00 | 0.00 | 24 | 1019.5 |
| 20260504173804 | 73 | 317 | 2.6 | 10.4 | 0.00 | 0.00 | 0.00 | 24 | 1019.6 |
| 20260504173305 | 72 | 352 | 2.6 | 10.4 | 0.00 | 0.00 | 0.00 | 25 | 1019.6 |
| 20260504171305 | 72 | 9 | 2.6 | 11.3 | 0.00 | 0.00 | 0.00 | 25 | 1019.8 |
| 20260504170805 | 72 | 10 | 2.6 | 8.7 | 0.00 | 0.00 | 0.00 | 25 | 1019.9 |
| 20260504170307 | 72 | 285 | 2.6 | 8.7 | 0.00 | 0.00 | 0.00 | 26 | 1019.8 |
| 20260504160307 | 66 | 278 | 1.7 | 5.2 | 0.00 | 0.00 | 0.00 | 29 | 1020.6 |